Time;durP1;ratioP1;P1;durP2;ratioP2;P2;SDS_P1;SDS_P2;PMS_P1;PMS_P2;Temp;Humidity;BMP_temperature;BMP_pressure;BME280_temperature;BME280_humidity;BME280_pressure;Samples;Min_cycle;Max_cycle;Signal;HPM_P1;HPM_P2
2023/09/26 00:09:30;;;;;;;4.30;1.50;;;;;;;9.64;100.00;98331.31;18566496;32;20049;-55
2023/09/26 00:19:32;;;;;;;3.63;1.57;;;;;;;9.60;100.00;98330.16;18565894;32;20425;-56
2023/09/26 00:29:35;;;;;;;2.50;1.17;;;;;;;9.47;100.00;98336.75;18565326;32;20484;-55
2023/09/26 00:39:37;;;;;;;5.57;1.60;;;;;;;9.34;100.00;98329.78;18550486;32;20068;-55
2023/09/26 00:49:39;;;;;;;2.90;1.60;;;;;;;9.27;100.00;98326.44;18549801;32;20057;-54
2023/09/26 00:59:42;;;;;;;10.67;2.17;;;;;;;9.20;100.00;98315.78;18548827;32;20064;-53
2023/09/26 01:09:45;;;;;;;5.97;2.20;;;;;;;9.26;100.00;98317.53;18562294;32;20053;-54
2023/09/26 01:19:47;;;;;;;3.43;1.83;;;;;;;9.29;100.00;98322.41;18562123;32;20057;-54
2023/09/26 01:29:51;;;;;;;2.53;1.60;;;;;;;9.27;100.00;98318.31;18561636;32;20103;-51
2023/09/26 01:39:53;;;;;;;4.20;1.80;;;;;;;9.14;100.00;98314.06;18561105;32;20064;-54
2023/09/26 01:49:56;;;;;;;3.23;1.73;;;;;;;9.00;100.00;98318.94;18560710;31;20463;-55
2023/09/26 02:00:12;;;;;;;4.27;1.70;;;;;;;8.98;100.00;98311.09;18564226;32;20090;-54
2023/09/26 02:10:16;;;;;;;4.40;1.70;;;;;;;9.05;100.00;98326.34;18581899;32;20060;-54
2023/09/26 02:20:19;;;;;;;4.53;2.10;;;;;;;9.06;100.00;98318.00;18567606;32;20061;-54
2023/09/26 02:30:24;;;;;;;4.23;1.83;;;;;;;9.00;100.00;98316.25;18567249;32;20159;-54
2023/09/26 02:40:26;;;;;;;2.47;1.70;;;;;;;8.82;100.00;98311.91;18581061;32;20057;-53
2023/09/26 02:50:29;;;;;;;4.87;1.60;;;;;;;8.72;100.00;98307.16;18566687;32;20377;-54
2023/09/26 03:00:31;;;;;;;2.77;1.73;;;;;;;8.63;100.00;98292.41;18566153;32;20097;-53
2023/09/26 03:10:33;;;;;;;2.80;1.43;;;;;;;8.60;100.00;98288.31;18563782;32;20065;-55
2023/09/26 03:20:39;;;;;;;6.07;1.50;;;;;;;8.55;100.00;98284.72;18569346;32;20080;-55
2023/09/26 03:30:42;;;;;;;4.27;1.70;;;;;;;8.48;100.00;98280.31;18568748;32;20057;-56
2023/09/26 03:40:44;;;;;;;1.93;1.40;;;;;;;8.50;100.00;98285.47;18568678;32;20060;-54
2023/09/26 03:50:47;;;;;;;2.13;1.37;;;;;;;8.44;100.00;98287.22;18567710;32;20097;-56
2023/09/26 04:00:50;;;;;;;2.93;1.47;;;;;;;8.43;100.00;98282.06;18567284;32;20060;-54
2023/09/26 04:10:53;;;;;;;3.50;2.00;;;;;;;8.43;100.00;98280.19;18566192;31;20108;-55
2023/09/26 04:20:55;;;;;;;3.43;1.50;;;;;;;8.40;100.00;98272.59;18565886;32;20068;-55
2023/09/26 04:30:58;;;;;;;2.90;1.40;;;;;;;8.35;100.00;98279.75;18550294;31;20105;-55
2023/09/26 04:41:04;;;;;;;7.80;1.97;;;;;;;8.33;100.00;98271.87;18564606;32;20057;-55
2023/09/26 04:51:17;;;;;;;4.80;1.77;;;;;;;8.25;100.00;98273.09;18563991;32;20064;-56
2023/09/26 05:01:39;;;;;;;2.93;1.77;;;;;;;8.12;100.00;98268.00;18563283;32;20065;-54
2023/09/26 05:12:01;;;;;;;3.40;2.13;;;;;;;8.11;100.00;98269.88;18562228;31;20399;-57
2023/09/26 05:56:07;;;;;;;3.60;1.93;;;;;;;7.96;100.00;98256.09;18560707;32;20080;-55
2023/09/26 06:06:10;;;;;;;3.03;1.67;;;;;;;7.84;100.00;98248.06;18545745;32;20052;-55
2023/09/26 06:16:13;;;;;;;3.27;1.47;;;;;;;7.89;100.00;98260.78;18560106;32;20368;-54
2023/09/26 06:26:16;;;;;;;4.90;1.50;;;;;;;8.03;100.00;98255.94;18560046;32;20075;-53
2023/09/26 06:36:21;;;;;;;3.63;2.30;;;;;;;8.27;100.00;98259.41;18559250;32;20069;-55
2023/09/26 06:46:24;;;;;;;2.57;2.17;;;;;;;8.57;100.00;98261.88;18561551;32;20387;-55
2023/09/26 06:56:27;;;;;;;3.60;1.80;;;;;;;8.87;100.00;98262.66;18570776;32;20091;-55
2023/09/26 07:06:31;;;;;;;3.37;2.20;;;;;;;9.22;100.00;98264.28;18569944;32;20334;-54
2023/09/26 07:16:34;;;;;;;5.50;2.20;;;;;;;9.57;100.00;98268.56;18542756;31;20057;-55
2023/09/26 07:26:39;;;;;;;3.23;2.10;;;;;;;9.96;100.00;98279.34;18569332;32;20453;-55
2023/09/26 07:36:42;;;;;;;3.93;1.60;;;;;;;10.40;100.00;98281.22;18554912;32;20057;-56
2023/09/26 07:46:46;;;;;;;3.62;2.12;;;;;;;10.79;100.00;98289.22;18553643;32;20105;-55
2023/09/26 07:56:49;;;;;;;2.60;1.67;;;;;;;11.23;100.00;98294.44;18566834;32;20049;-55
2023/09/26 08:06:52;;;;;;;2.53;1.95;;;;;;;11.68;100.00;98295.03;18566689;32;20052;-53
2023/09/26 08:16:55;;;;;;;2.33;1.62;;;;;;;12.11;100.00;98298.53;18566233;32;20449;-54
2023/09/26 08:26:58;;;;;;;3.00;1.60;;;;;;;12.54;100.00;98298.44;18566101;32;20437;-51
2023/09/26 08:37:01;;;;;;;3.12;1.90;;;;;;;12.95;100.00;98311.25;18550753;32;20057;-55
2023/09/26 08:47:04;;;;;;;2.25;1.60;;;;;;;13.30;100.00;98306.94;18550122;32;20071;-53
2023/09/26 08:57:08;;;;;;;3.83;1.92;;;;;;;13.70;100.00;98316.16;18549321;32;20143;-55
2023/09/26 09:07:12;;;;;;;3.23;1.67;;;;;;;14.13;100.00;98308.44;18548431;32;20092;-54
2023/09/26 09:17:15;;;;;;;;;;;;;;;14.56;100.00;98299.81;18548602;32;20052;-54
2023/09/26 09:27:31;;;;;;;2.87;1.95;;;;;;;14.95;100.00;98292.78;18562153;32;20015;-55
2023/09/26 09:37:35;;;;;;;2.65;1.70;;;;;;;15.31;100.00;98287.88;18561501;32;20079;-56
2023/09/26 09:47:42;;;;;;;2.08;1.30;;;;;;;15.65;100.00;98280.72;18560946;32;20433;-54
2023/09/26 09:57:49;;;;;;;2.25;1.45;;;;;;;15.97;100.00;98276.63;18560715;31;20064;-55
2023/09/26 10:07:54;;;;;;;2.92;1.30;;;;;;;16.13;100.00;98260.88;18546209;32;20056;-55
2023/09/26 10:18:02;;;;;;;2.50;1.55;;;;;;;16.46;100.00;98256.34;18560088;32;20080;-55
2023/09/26 10:28:07;;;;;;;2.67;1.75;;;;;;;16.82;100.00;98263.22;18556757;32;20357;-55
2023/09/26 10:38:18;;;;;;;4.03;1.65;;;;;;;17.15;100.00;98244.16;18571957;32;20080;-56
2023/09/26 10:48:22;;;;;;;3.20;1.55;;;;;;;17.39;100.00;98261.22;18571788;31;20402;-56
2023/09/26 10:58:26;;;;;;;1.73;1.27;;;;;;;17.55;100.00;98250.00;18570924;32;20080;-54
2023/09/26 11:08:30;;;;;;;2.22;1.60;;;;;;;17.69;100.00;98237.16;18556319;32;20135;-55
2023/09/26 11:18:33;;;;;;;2.20;1.40;;;;;;;18.10;100.00;98221.88;18570190;32;20091;-56
2023/09/26 11:28:38;;;;;;;;;;;;;;;18.32;100.00;98223.03;18555622;32;20126;-56
2023/09/26 11:38:52;;;;;;;2.78;1.85;;;;;;;18.87;100.00;98214.66;18568059;32;19952;-55
2023/09/26 11:48:57;;;;;;;3.30;1.70;;;;;;;19.54;100.00;98199.28;18568125;32;20447;-56
2023/09/26 11:59:04;;;;;;;3.90;1.75;;;;;;;20.14;100.00;98188.81;18567349;32;20494;-56
2023/09/26 12:09:11;;;;;;;2.97;2.12;;;;;;;20.67;100.00;98189.66;18566717;32;20508;-56
2023/09/26 12:19:15;;;;;;;2.60;1.67;;;;;;;21.20;100.00;98190.44;18566494;32;20083;-56
2023/09/26 12:29:18;;;;;;;3.42;1.70;;;;;;;21.67;99.43;98179.44;18551530;32;20082;-56
2023/09/26 12:39:21;;;;;;;3.22;2.05;;;;;;;22.13;100.00;98159.56;18550536;31;20052;-56
2023/09/26 12:49:25;;;;;;;3.30;1.80;;;;;;;22.60;100.00;98164.91;18564033;32;20449;-57
2023/09/26 12:59:29;;;;;;;3.75;1.50;;;;;;;22.91;95.08;98166.41;18536111;32;20083;-56
2023/09/26 13:09:32;;;;;;;2.97;1.70;;;;;;;22.96;94.36;98152.41;18562613;31;20057;-55
2023/09/26 13:19:35;;;;;;;2.78;1.60;;;;;;;22.89;81.69;98146.66;18562622;32;20078;-55
2023/09/26 13:29:48;;;;;;;3.72;1.73;;;;;;;22.48;80.45;98137.31;18562053;31;20477;-56
2023/09/26 13:40:26;;;;;;;2.42;1.55;;;;;;;22.04;89.55;98126.59;18561736;32;20069;-55
2023/09/26 13:50:58;;;;;;;4.43;1.60;;;;;;;21.69;97.96;98126.00;18535045;32;20078;-56
2023/09/26 14:01:23;;;;;;;3.70;1.80;;;;;;;21.60;100.00;98128.81;18546341;32;20416;-55
2023/09/26 14:11:25;;;;;;;2.45;1.37;;;;;;;21.69;81.56;98123.25;18559930;32;20060;-55
2023/09/26 14:21:28;;;;;;;2.67;1.60;;;;;;;21.65;81.97;98118.41;18560393;32;20117;-55
2023/09/26 14:31:31;;;;;;;2.20;1.27;;;;;;;21.45;85.30;98121.91;18559475;32;20064;-55
2023/09/26 14:41:34;;;;;;;2.72;1.70;;;;;;;21.22;83.29;98119.37;18559480;32;20393;-55
2023/09/26 14:51:37;;;;;;;2.95;1.73;;;;;;;21.42;88.07;98119.78;18531949;32;20117;-55
2023/09/26 15:01:40;;;;;;;;;;;;;;;21.19;84.25;98117.31;18559458;32;20060;-56
2023/09/26 15:11:44;;;;;;;2.20;1.40;;;;;;;20.92;90.89;98115.78;18566020;32;19967;-55
2023/09/26 15:21:47;;;;;;;2.50;1.70;;;;;;;20.69;93.14;98115.16;18569848;31;20382;-55
2023/09/26 15:31:52;;;;;;;3.42;1.55;;;;;;;20.32;97.25;98112.75;18569012;32;20138;-55
2023/09/26 15:41:56;;;;;;;3.25;1.85;;;;;;;20.02;100.00;98115.34;18568774;32;20065;-55
2023/09/26 15:52:01;;;;;;;2.22;1.50;;;;;;;19.69;100.00;98104.75;18567757;32;20483;-55
2023/09/26 16:02:04;;;;;;;4.25;1.83;;;;;;;19.34;100.00;98106.59;18567870;32;20049;-55
2023/09/26 16:12:09;;;;;;;3.42;1.65;;;;;;;18.96;100.00;98102.38;18566294;31;20053;-56
2023/09/26 16:22:12;;;;;;;2.37;1.60;;;;;;;18.59;100.00;98115.34;18565475;32;20105;-56
2023/09/26 16:32:15;;;;;;;3.90;2.40;;;;;;;18.23;100.00;98113.50;18565466;32;20104;-55
2023/09/26 16:42:22;;;;;;;3.50;1.98;;;;;;;17.89;100.00;98121.03;18564713;32;20068;-54
2023/09/26 16:52:24;;;;;;;2.50;1.33;;;;;;;17.59;100.00;98119.75;18564523;32;20064;-55
2023/09/26 17:02:28;;;;;;;4.10;2.10;;;;;;;17.27;100.00;98133.22;18563642;32;20539;-55
2023/09/26 17:12:31;;;;;;;3.58;1.90;;;;;;;16.98;100.00;98135.41;18562717;32;20068;-53
2023/09/26 17:22:34;;;;;;;3.67;1.73;;;;;;;16.72;100.00;98141.31;18548598;32;20398;-55
2023/09/26 17:32:37;;;;;;;3.27;1.67;;;;;;;16.39;100.00;98153.00;18547383;32;20406;-55
2023/09/26 17:42:42;;;;;;;4.55;1.90;;;;;;;16.03;100.00;98150.81;18561549;32;20101;-56
2023/09/26 17:52:52;;;;;;;2.57;1.50;;;;;;;15.71;100.00;98159.62;18561075;32;20083;-54
2023/09/26 18:02:56;;;;;;;2.50;1.60;;;;;;;15.39;100.00;98164.63;18560644;32;20394;-55
2023/09/26 18:12:59;;;;;;;3.05;1.62;;;;;;;15.09;100.00;98168.50;18560324;32;20069;-55
2023/09/26 18:23:01;;;;;;;7.47;2.12;;;;;;;14.82;100.00;98177.97;18532586;32;20436;-55
2023/09/26 18:33:04;;;;;;;3.17;2.03;;;;;;;14.56;100.00;98185.50;18560014;32;20124;-54
2023/09/26 18:43:08;;;;;;;4.60;2.40;;;;;;;14.29;100.00;98196.84;18535537;32;20064;-54
2023/09/26 18:53:10;;;;;;;8.95;2.97;;;;;;;14.09;100.00;98212.19;18571531;32;20117;-55
2023/09/26 19:03:13;;;;;;;5.95;2.80;;;;;;;13.90;100.00;98220.16;18556525;32;20450;-53
2023/09/26 19:13:19;;;;;;;2.65;1.73;;;;;;;13.70;100.00;98221.03;18570301;32;20068;-55
2023/09/26 19:23:24;;;;;;;3.62;2.80;;;;;;;13.53;100.00;98230.31;18543666;32;20116;-56
2023/09/26 19:33:26;;;;;;;4.55;3.20;;;;;;;13.41;100.00;98237.16;18555008;32;20072;-55
2023/09/26 19:43:31;;;;;;;8.00;3.12;;;;;;;13.29;100.00;98245.53;18541600;32;20048;-55
2023/09/26 19:53:36;;;;;;;5.18;3.65;;;;;;;13.11;100.00;98244.22;18567108;32;20101;-55
2023/09/26 20:03:40;;;;;;;4.97;2.20;;;;;;;12.91;100.00;98245.84;18553429;32;20049;-55
2023/09/26 20:13:43;;;;;;;6.45;2.47;;;;;;;12.74;100.00;98251.50;18552478;32;20069;-54
2023/09/26 20:23:46;;;;;;;7.10;2.50;;;;;;;12.57;100.00;98248.25;18552166;32;20441;-55
2023/09/26 20:33:49;;;;;;;7.40;3.37;;;;;;;12.41;100.00;98256.34;18550953;32;20097;-53
2023/09/26 20:43:55;;;;;;;10.57;3.70;;;;;;;12.26;100.00;98259.00;18564607;31;20123;-55
2023/09/26 20:53:58;;;;;;;7.78;2.78;;;;;;;12.10;100.00;98258.97;18564359;32;20100;-54
2023/09/26 21:04:00;;;;;;;4.15;2.25;;;;;;;11.94;100.00;98244.53;18563312;32;20057;-55
2023/09/26 21:14:03;;;;;;;9.07;2.47;;;;;;;11.81;100.00;98234.13;18548808;32;20072;-55
2023/09/26 21:24:06;;;;;;;9.93;2.53;;;;;;;11.75;100.00;98243.34;18562577;32;20104;-55
2023/09/26 21:34:10;;;;;;;3.30;2.33;;;;;;;11.60;100.00;98241.37;18561786;31;20109;-55
2023/09/26 21:44:12;;;;;;;3.92;2.25;;;;;;;11.59;100.00;98237.81;18561575;32;20205;-55
2023/09/26 21:54:15;;;;;;;8.63;2.10;;;;;;;11.52;100.00;98234.53;18560827;32;20065;-55
2023/09/26 22:04:17;;;;;;;3.47;2.30;;;;;;;11.43;100.00;98238.81;18560623;32;20060;-55
2023/09/26 22:14:20;;;;;;;4.70;2.60;;;;;;;11.36;100.00;98236.34;18560043;32;20056;-55
2023/09/26 22:24:23;;;;;;;4.62;2.28;;;;;;;11.28;100.00;98234.13;18572049;32;20060;-52
2023/09/26 22:34:25;;;;;;;5.03;2.25;;;;;;;11.15;100.00;98233.47;18572731;32;20052;-55
2023/09/26 22:44:30;;;;;;;3.22;1.80;;;;;;;11.04;100.00;98214.75;18572385;32;20377;-54
2023/09/26 22:54:34;;;;;;;6.25;2.62;;;;;;;10.95;100.00;98192.75;18571626;32;20428;-52
2023/09/26 23:04:37;;;;;;;5.90;2.30;;;;;;;10.97;100.00;98177.09;18571086;32;20104;-53
2023/09/26 23:14:40;;;;;;;4.22;2.30;;;;;;;10.93;100.00;98171.34;18570335;32;20063;-54
2023/09/26 23:24:42;;;;;;;5.78;2.67;;;;;;;11.03;100.00;98170.59;18569691;31;20064;-53
2023/09/26 23:34:55;;;;;;;5.43;2.17;;;;;;;10.97;100.00;98187.91;18553860;32;20062;-53
2023/09/26 23:44:57;;;;;;;5.00;2.30;;;;;;;10.95;100.00;98184.63;18568748;32;20060;-54
2023/09/26 23:54:59;;;;;;;5.32;2.72;;;;;;;10.94;100.00;98200.06;18553670;32;20073;-54
